Time;durP1;ratioP1;P1;durP2;ratioP2;P2;SDS_P1;SDS_P2;PMS_P1;PMS_P2;Temp;Humidity;BMP_temperature;BMP_pressure;BME280_temperature;BME280_humidity;BME280_pressure;Samples;Min_cycle;Max_cycle;Signal;HPM_P1;HPM_P2
2022/08/07 00:00:06;;;;;;;7.15;2.30;;;;;;;12.16;100.00;101553.13;5069043;28;20031;-73
2022/08/07 00:02:32;;;;;;;2.78;1.63;;;;;;;12.10;100.00;101544.59;5092694;28;20028;-73
2022/08/07 00:04:57;;;;;;;4.38;1.92;;;;;;;12.13;100.00;101565.56;5095062;28;20051;-72
2022/08/07 00:07:23;;;;;;;5.03;2.28;;;;;;;11.88;100.00;101527.88;5090244;28;20021;-72
2022/08/07 00:09:48;;;;;;;4.97;2.83;;;;;;;12.00;100.00;101556.38;5079803;28;20032;-72
2022/08/07 00:12:13;;;;;;;8.20;2.53;;;;;;;11.94;100.00;101539.03;5076109;28;20028;-73
2022/08/07 00:14:39;;;;;;;5.93;2.80;;;;;;;11.89;100.00;101527.81;5086440;28;20110;-73
2022/08/07 00:17:04;;;;;;;5.20;2.80;;;;;;;11.94;100.00;101525.84;5076241;28;20042;-72
2022/08/07 00:19:30;;;;;;;4.22;2.53;;;;;;;12.08;100.00;101546.41;5083029;28;20059;-72
2022/08/07 00:21:55;;;;;;;8.32;3.50;;;;;;;12.14;100.00;101554.94;5101157;28;20111;-72
2022/08/07 00:24:21;;;;;;;3.92;2.33;;;;;;;12.15;100.00;101551.41;5079119;28;20414;-72
2022/08/07 00:26:46;;;;;;;4.72;2.85;;;;;;;12.13;100.00;101534.78;5084264;28;20031;-72
2022/08/07 00:29:12;;;;;;;5.57;2.80;;;;;;;12.26;100.00;101549.22;5078545;28;20426;-72
2022/08/07 00:31:37;;;;;;;6.85;2.67;;;;;;;12.26;100.00;101543.09;5093077;28;20122;-72
2022/08/07 00:34:02;;;;;;;3.97;2.38;;;;;;;12.16;100.00;101526.78;5079357;28;20483;-72
2022/08/07 00:36:28;;;;;;;3.28;2.08;;;;;;;12.06;100.00;101519.28;5074502;28;20028;-73
2022/08/07 00:38:53;;;;;;;7.68;3.03;;;;;;;12.08;100.00;101530.59;5076633;28;20032;-71
2022/08/07 00:41:25;;;;;;;3.45;2.25;;;;;;;12.01;100.00;101532.63;5075858;28;20047;-72
2022/08/07 00:43:51;;;;;;;4.10;2.53;;;;;;;11.98;100.00;101537.13;5055709;28;20037;-72
2022/08/07 00:46:16;;;;;;;5.65;2.70;;;;;;;11.91;100.00;101531.25;5074097;28;20027;-73
2022/08/07 00:48:41;;;;;;;4.80;2.58;;;;;;;11.87;100.00;101526.13;5072822;28;20028;-76
2022/08/07 00:51:07;;;;;;;4.18;2.15;;;;;;;11.79;100.00;101523.81;5059062;28;20047;-74
2022/08/07 00:53:32;;;;;;;4.80;2.90;;;;;;;11.81;100.00;101535.13;5094497;28;20039;-74
2022/08/07 00:55:58;;;;;;;6.60;2.67;;;;;;;11.69;100.00;101519.78;5073927;28;20093;-75
2022/08/07 00:58:23;;;;;;;4.40;2.60;;;;;;;11.60;100.00;101517.44;5082480;28;20058;-74
2022/08/07 01:00:48;;;;;;;4.30;2.55;;;;;;;11.58;100.00;101516.66;5075373;28;20017;-74
2022/08/07 01:03:14;;;;;;;5.22;2.45;;;;;;;11.62;100.00;101536.72;5073770;28;20020;-75
2022/08/07 01:05:39;;;;;;;5.05;2.60;;;;;;;11.57;100.00;101536.00;5055827;28;20435;-75
2022/08/07 01:08:05;;;;;;;8.13;2.88;;;;;;;11.48;100.00;101531.06;5068511;28;20032;-74
2022/08/07 01:10:30;;;;;;;6.15;2.95;;;;;;;11.42;100.00;101521.63;5078321;28;20604;-74
2022/08/07 01:12:56;;;;;;;7.25;2.70;;;;;;;11.04;100.00;101493.16;5058798;28;20107;-75
2022/08/07 01:15:23;;;;;;;4.32;2.88;;;;;;;11.16;100.00;101525.16;5057585;28;20025;-75
2022/08/07 01:17:48;;;;;;;3.95;2.47;;;;;;;11.14;100.00;101521.72;5074597;28;20033;-74
2022/08/07 01:20:15;;;;;;;3.88;2.42;;;;;;;11.19;100.00;101529.44;5084189;28;20476;-75
2022/08/07 01:22:40;;;;;;;3.67;2.65;;;;;;;11.15;100.00;101512.06;5087388;28;20024;-74
2022/08/07 01:25:09;;;;;;;4.53;2.75;;;;;;;10.98;100.00;101483.72;5102038;28;20027;-75
2022/08/07 01:27:35;;;;;;;5.50;2.85;;;;;;;11.04;100.00;101496.66;5078516;28;20045;-75
2022/08/07 01:30:01;;;;;;;4.13;2.35;;;;;;;11.16;100.00;101517.25;5055102;28;20028;-75
2022/08/07 01:32:26;;;;;;;4.35;2.70;;;;;;;11.17;100.00;101516.38;5058185;28;20102;-74
2022/08/07 01:34:52;;;;;;;5.82;2.97;;;;;;;11.15;100.00;101523.44;5058519;28;20066;-74
2022/08/07 01:37:18;;;;;;;4.78;2.92;;;;;;;11.15;100.00;101522.59;5064985;28;20445;-74
2022/08/07 01:39:44;;;;;;;4.78;3.08;;;;;;;11.07;100.00;101504.44;5059056;28;20030;-74
2022/08/07 01:42:11;;;;;;;4.90;2.92;;;;;;;11.05;100.00;101490.47;5062420;28;20038;-74
2022/08/07 01:44:36;;;;;;;4.50;2.65;;;;;;;11.17;100.00;101516.38;5085955;28;20024;-75
2022/08/07 01:47:02;;;;;;;4.38;2.63;;;;;;;11.14;100.00;101512.97;5080311;28;20035;-74
2022/08/07 01:49:28;;;;;;;4.63;3.13;;;;;;;10.66;100.00;101441.88;5106735;28;20028;-74
2022/08/07 01:51:54;;;;;;;5.47;2.67;;;;;;;11.07;100.00;101514.97;5075621;28;20459;-73
2022/08/07 01:54:21;;;;;;;5.47;3.40;;;;;;;11.08;100.00;101508.78;5074567;28;20119;-73
2022/08/07 01:56:48;;;;;;;5.32;3.40;;;;;;;11.13;100.00;101514.75;5073883;28;20477;-73
2022/08/07 01:59:26;;;;;;;6.10;3.80;;;;;;;11.06;100.00;101499.22;5066596;28;20370;-74
2022/08/07 02:02:36;;;;;;;5.70;3.30;;;;;;;11.19;100.00;101518.91;5057269;28;20036;-74
2022/08/07 02:05:05;;;;;;;6.38;2.80;;;;;;;11.20;100.00;101508.34;4979008;28;20120;-75
2022/08/07 02:07:37;;;;;;;6.93;3.38;;;;;;;10.89;100.00;101454.22;5044928;28;20036;-74
2022/08/07 02:10:03;;;;;;;5.65;3.05;;;;;;;11.03;100.00;101489.66;5066849;28;20486;-75
2022/08/07 02:12:32;;;;;;;4.65;2.90;;;;;;;10.97;100.00;101482.00;5058123;28;20039;-75
2022/08/07 02:14:59;;;;;;;7.28;3.35;;;;;;;10.92;100.00;101468.13;5062076;28;20028;-75
2022/08/07 02:17:25;;;;;;;6.00;3.10;;;;;;;11.05;100.00;101485.19;5073085;28;20501;-75
2022/08/07 02:19:52;;;;;;;7.47;3.00;;;;;;;11.07;100.00;101501.81;5061622;28;20127;-75
2022/08/07 02:22:18;;;;;;;4.95;2.65;;;;;;;10.93;100.00;101483.00;5068078;28;20031;-75
2022/08/07 02:24:45;;;;;;;5.55;2.72;;;;;;;11.00;100.00;101495.03;5069300;28;20062;-75
2022/08/07 02:27:11;;;;;;;4.55;3.03;;;;;;;10.87;100.00;101472.72;5094772;28;20036;-75
2022/08/07 02:29:38;;;;;;;4.95;3.28;;;;;;;10.92;100.00;101483.91;5049072;28;20854;-75
2022/08/07 02:32:04;;;;;;;5.03;3.22;;;;;;;10.94;100.00;101487.38;5044197;28;20033;-75
2022/08/07 02:34:30;;;;;;;5.90;3.47;;;;;;;10.78;100.00;101475.66;5068559;28;20475;-75
2022/08/07 02:36:57;;;;;;;6.05;3.30;;;;;;;10.74;100.00;101479.28;5055103;28;20093;-75
2022/08/07 02:39:23;;;;;;;4.38;3.08;;;;;;;10.81;100.00;101501.84;5080306;28;20031;-75
2022/08/07 02:41:49;;;;;;;7.18;3.13;;;;;;;10.65;100.00;101475.19;5074547;28;20036;-75
2022/08/07 02:44:15;;;;;;;5.85;3.63;;;;;;;10.64;100.00;101477.88;5083342;28;20088;-76
2022/08/07 02:46:41;;;;;;;5.25;2.70;;;;;;;10.63;100.00;101492.78;5056012;28;20050;-75
2022/08/07 02:49:06;;;;;;;5.30;3.05;;;;;;;10.50;100.00;101475.69;5073940;28;20086;-76
2022/08/07 02:51:34;;;;;;;6.00;3.33;;;;;;;10.46;100.00;101479.34;5062755;28;20434;-75
2022/08/07 02:54:00;;;;;;;6.05;3.95;;;;;;;10.47;100.00;101485.44;5068459;28;20025;-75
2022/08/07 02:56:29;;;;;;;6.55;4.00;;;;;;;10.25;100.00;101448.50;5070106;28;20016;-75
2022/08/07 02:58:56;;;;;;;6.50;4.05;;;;;;;10.47;100.00;101481.06;5092587;28;20043;-75
2022/08/07 03:01:23;;;;;;;8.98;4.03;;;;;;;10.45;100.00;101476.75;5072575;28;20126;-75
2022/08/07 03:03:49;;;;;;;6.03;3.53;;;;;;;10.24;100.00;101439.75;5070058;28;20066;-75
2022/08/07 03:06:16;;;;;;;5.22;3.20;;;;;;;10.36;100.00;101450.78;5061574;28;20099;-75
2022/08/07 03:08:41;;;;;;;5.80;3.45;;;;;;;10.40;100.00;101470.78;5068272;28;20052;-75
2022/08/07 03:11:07;;;;;;;6.03;3.85;;;;;;;10.25;100.00;101459.00;5073627;28;20044;-75
2022/08/07 03:13:33;;;;;;;4.88;3.30;;;;;;;10.23;100.00;101451.19;5081551;28;20502;-75
2022/08/07 03:15:58;;;;;;;8.93;3.50;;;;;;;10.15;100.00;101463.69;5067720;28;20471;-75
2022/08/07 03:18:23;;;;;;;5.03;3.40;;;;;;;10.24;100.00;101463.38;5078511;28;20020;-75
2022/08/07 03:20:49;;;;;;;5.45;3.80;;;;;;;10.26;100.00;101471.22;5049390;28;20029;-75
2022/08/07 03:23:15;;;;;;;5.93;3.58;;;;;;;10.27;100.00;101484.28;5071765;28;20028;-74
2022/08/07 03:25:41;;;;;;;5.00;3.65;;;;;;;10.13;100.00;101468.09;5080318;28;20052;-74
2022/08/07 03:28:11;;;;;;;6.18;3.35;;;;;;;10.09;100.00;101463.84;5053525;28;20027;-75
2022/08/07 03:30:37;;;;;;;6.45;3.92;;;;;;;9.98;100.00;101460.69;5080550;28;20032;-75
2022/08/07 03:33:03;;;;;;;6.50;4.20;;;;;;;9.98;100.00;101459.81;5068915;28;20494;-74
2022/08/07 03:35:29;;;;;;;6.55;3.80;;;;;;;9.94;100.00;101452.94;5078818;28;20040;-75
2022/08/07 03:38:01;;;;;;;8.35;4.43;;;;;;;10.06;100.00;101469.19;5083674;28;20020;-73
2022/08/07 03:40:28;;;;;;;4.97;3.53;;;;;;;10.02;100.00;101461.44;5089280;28;20031;-73
2022/08/07 03:42:53;;;;;;;6.10;3.85;;;;;;;9.77;100.00;101424.56;5061066;28;20108;-74
2022/08/07 03:45:20;;;;;;;6.05;4.32;;;;;;;10.01;100.00;101462.34;5054384;28;20028;-74
2022/08/07 03:47:46;;;;;;;6.72;4.57;;;;;;;9.90;100.00;101451.34;5053883;28;20035;-74
2022/08/07 03:50:11;;;;;;;7.47;3.90;;;;;;;9.98;100.00;101465.94;5053330;28;20029;-74
2022/08/07 03:52:37;;;;;;;8.35;4.40;;;;;;;9.83;100.00;101448.03;5056273;28;20020;-74
2022/08/07 03:55:04;;;;;;;9.98;5.28;;;;;;;9.81;100.00;101478.69;5092705;28;20067;-73
2022/08/07 03:57:31;;;;;;;7.10;4.50;;;;;;;9.73;100.00;101465.81;5075897;28;20102;-74
2022/08/07 03:59:56;;;;;;;7.57;4.55;;;;;;;9.69;100.00;101469.44;5057393;28;20035;-75
2022/08/07 04:02:22;;;;;;;6.85;4.65;;;;;;;9.65;100.00;101466.94;5063334;28;20072;-75
2022/08/07 04:04:48;;;;;;;10.10;5.60;;;;;;;9.61;100.00;101453.06;5055336;28;20033;-75
2022/08/07 04:07:20;;;;;;;5.47;4.45;;;;;;;9.70;100.00;101465.91;5078882;28;20032;-75
2022/08/07 04:09:46;;;;;;;6.88;4.60;;;;;;;9.65;100.00;101461.69;5067697;28;20548;-76
2022/08/07 04:12:15;;;;;;;6.93;4.55;;;;;;;9.71;100.00;101469.38;5076025;28;20051;-76
2022/08/07 04:14:41;;;;;;;7.65;5.07;;;;;;;9.70;100.00;101467.66;5069900;28;20034;-75
2022/08/07 04:17:07;;;;;;;6.95;5.03;;;;;;;9.51;100.00;101428.00;5056936;28;20028;-74
2022/08/07 04:19:33;;;;;;;5.88;4.63;;;;;;;9.63;100.00;101450.41;5072275;28;20327;-75
2022/08/07 04:21:58;;;;;;;6.60;5.18;;;;;;;9.75;100.00;101482.38;5062373;28;20037;-74
2022/08/07 04:24:25;;;;;;;6.13;4.50;;;;;;;9.71;100.00;101472.00;5088102;28;20024;-74
2022/08/07 04:26:50;;;;;;;8.45;5.40;;;;;;;9.64;100.00;101459.97;5076265;28;20471;-74
2022/08/07 04:29:15;;;;;;;10.80;5.07;;;;;;;9.64;100.00;101465.22;5059662;28;20056;-74
2022/08/07 04:31:41;;;;;;;6.00;4.80;;;;;;;9.61;100.00;101465.31;5091593;28;20084;-74
2022/08/07 04:34:07;;;;;;;6.40;4.47;;;;;;;9.62;100.00;101454.78;5077563;28;20057;-74
2022/08/07 04:36:33;;;;;;;7.95;5.40;;;;;;;9.77;100.00;101488.44;5089941;28;20485;-74
2022/08/07 04:38:59;;;;;;;9.40;5.68;;;;;;;9.76;100.00;101488.50;5094410;28;20181;-74
2022/08/07 04:41:24;;;;;;;7.75;5.47;;;;;;;9.75;100.00;101474.50;5056083;28;20399;-74
2022/08/07 04:43:50;;;;;;;6.78;5.32;;;;;;;9.80;100.00;101471.72;5061882;28;20067;-74
2022/08/07 04:46:34;;;;;;;11.15;6.13;;;;;;;9.87;100.00;101481.16;5065872;28;20036;-74
2022/08/07 04:49:07;;;;;;;7.13;5.43;;;;;;;9.86;100.00;101483.84;5081927;28;20039;-75
2022/08/07 04:51:55;;;;;;;7.57;5.57;;;;;;;9.90;100.00;101490.72;5092381;28;20056;-74
2022/08/07 04:54:50;;;;;;;7.57;5.35;;;;;;;9.94;100.00;101489.69;5074088;28;20032;-75
2022/08/07 04:57:15;;;;;;;;;;;;;;;9.96;100.00;101494.00;5035177;28;20536;-73
2022/08/07 04:59:55;;;;;;;8.38;5.43;;;;;;;9.91;100.00;101488.03;5074030;28;19912;-73
2022/08/07 05:02:32;;;;;;;6.18;5.00;;;;;;;10.03;100.00;101505.19;5063554;28;20184;-74
2022/08/07 05:05:07;;;;;;;6.60;5.10;;;;;;;10.09;100.00;101495.34;5054339;28;20390;-74
2022/08/07 05:07:39;;;;;;;7.32;5.40;;;;;;;10.06;100.00;101478.84;5080022;28;20446;-74
2022/08/07 05:10:06;;;;;;;8.82;5.55;;;;;;;10.15;100.00;101492.56;5074379;28;20515;-74
2022/08/07 05:12:58;;;;;;;7.47;5.97;;;;;;;10.23;100.00;101502.84;5061027;28;20487;-74
2022/08/07 05:15:26;;;;;;;9.00;6.70;;;;;;;10.15;100.00;101474.19;5056084;28;20509;-74
2022/08/07 05:18:01;;;;;;;9.32;8.32;;;;;;;10.51;100.00;101513.34;5068356;28;20055;-74
2022/08/07 05:20:32;;;;;;;10.73;9.00;;;;;;;10.67;100.00;101509.31;5089667;28;20081;-74
2022/08/07 05:23:00;;;;;;;10.48;9.27;;;;;;;10.76;100.00;101494.09;5073227;28;20489;-73
2022/08/07 05:25:26;;;;;;;10.63;8.43;;;;;;;10.92;100.00;101493.56;5056955;28;20375;-74
2022/08/07 05:27:52;;;;;;;9.20;8.30;;;;;;;11.09;100.00;101510.50;5069111;28;20035;-74
2022/08/07 05:30:17;;;;;;;13.75;9.20;;;;;;;11.14;100.00;101490.16;5055371;28;20036;-73
2022/08/07 05:32:46;;;;;;;12.52;9.55;;;;;;;11.22;100.00;101482.84;5050390;28;20052;-74
2022/08/07 05:35:12;;;;;;;11.95;7.72;;;;;;;11.35;100.00;101490.31;5055992;28;20052;-73
2022/08/07 05:37:38;;;;;;;9.40;7.70;;;;;;;11.53;100.00;101498.41;5054107;28;20170;-73
2022/08/07 05:40:04;;;;;;;10.05;7.50;;;;;;;11.67;100.00;101501.38;5070297;28;20055;-73
2022/08/07 05:42:30;;;;;;;10.50;8.20;;;;;;;11.73;100.00;101492.41;5074907;28;20515;-73
2022/08/07 05:44:56;;;;;;;9.27;7.82;;;;;;;11.79;100.00;101494.84;5075296;28;20371;-73
2022/08/07 05:47:22;;;;;;;8.40;7.28;;;;;;;12.08;100.00;101531.47;5073154;28;20031;-73
2022/08/07 05:49:48;;;;;;;14.38;7.70;;;;;;;12.02;100.00;101483.44;5073731;28;20038;-73
2022/08/07 05:52:13;;;;;;;9.32;8.07;;;;;;;11.88;100.00;101451.50;5044837;28;20070;-72
2022/08/07 05:54:39;;;;;;;10.05;7.28;;;;;;;12.31;100.00;101506.84;5080702;28;20028;-73
2022/08/07 05:57:05;;;;;;;11.38;7.45;;;;;;;12.30;100.00;101487.53;5069556;28;20546;-72
2022/08/07 05:59:32;;;;;;;7.65;6.32;;;;;;;12.58;100.00;101510.16;5067226;28;20102;-73
2022/08/07 06:01:58;;;;;;;9.38;6.78;;;;;;;12.65;100.00;101506.34;5061291;28;20116;-73
2022/08/07 06:04:24;;;;;;;8.32;7.10;;;;;;;12.85;100.00;101516.09;5066329;28;20024;-72
2022/08/07 06:06:50;;;;;;;9.15;6.50;;;;;;;12.82;100.00;101503.88;5055304;28;20031;-73
2022/08/07 06:09:16;;;;;;;10.80;7.70;;;;;;;12.97;100.00;101505.91;5064474;28;20116;-73
2022/08/07 06:11:41;;;;;;;9.15;6.63;;;;;;;13.09;100.00;101510.66;5095429;28;20033;-73
2022/08/07 06:14:07;;;;;;;9.57;7.78;;;;;;;13.17;100.00;101521.78;5061809;28;20058;-73
2022/08/07 06:16:33;;;;;;;11.82;7.03;;;;;;;13.22;100.00;101516.28;5085795;28;20028;-73
2022/08/07 06:19:00;;;;;;;9.55;6.85;;;;;;;13.39;100.00;101534.03;5074738;28;20100;-73
2022/08/07 06:21:27;;;;;;;9.45;7.10;;;;;;;13.43;100.00;101535.59;5072668;28;20056;-73
2022/08/07 06:23:52;;;;;;;9.23;7.97;;;;;;;13.54;100.00;101533.38;5102927;28;20462;-73
2022/08/07 06:26:17;;;;;;;10.43;7.15;;;;;;;13.55;100.00;101513.97;5091569;28;20024;-73
2022/08/07 06:28:50;;;;;;;8.70;6.10;;;;;;;13.57;100.00;101509.47;5060141;28;20040;-73
2022/08/07 06:31:15;;;;;;;11.13;6.30;;;;;;;13.67;100.00;101514.25;5073989;28;20104;-74
2022/08/07 06:33:41;;;;;;;14.05;7.45;;;;;;;13.87;100.00;101525.69;5072313;28;20450;-73
2022/08/07 06:36:06;;;;;;;8.18;6.40;;;;;;;13.89;100.00;101524.69;5089707;28;20024;-74
2022/08/07 06:38:32;;;;;;;8.02;6.40;;;;;;;14.01;100.00;101518.00;5089356;28;20379;-74
2022/08/07 06:40:58;;;;;;;9.02;7.28;;;;;;;14.11;100.00;101519.28;5089442;28;20107;-74
2022/08/07 06:43:25;;;;;;;8.57;6.28;;;;;;;14.24;100.00;101523.94;5072410;28;20475;-74
2022/08/07 06:45:50;;;;;;;9.23;6.50;;;;;;;14.30;100.00;101526.28;5068619;28;20032;-74
2022/08/07 06:48:16;;;;;;;9.93;6.10;;;;;;;14.30;100.00;101510.41;5059635;28;20078;-74
2022/08/07 06:50:42;;;;;;;8.13;6.93;;;;;;;14.57;100.00;101537.34;5072175;28;20024;-74
2022/08/07 06:53:08;;;;;;;7.50;6.05;;;;;;;14.67;100.00;101527.16;5086280;28;20020;-73
2022/08/07 06:55:33;;;;;;;7.07;5.97;;;;;;;14.69;100.00;101512.09;5085617;28;20035;-74
2022/08/07 06:58:02;;;;;;;7.32;6.53;;;;;;;14.82;100.00;101529.94;5065828;28;20038;-74
2022/08/07 07:00:31;;;;;;;15.82;7.10;;;;;;;14.84;100.00;101508.69;5074284;28;20020;-73
2022/08/07 07:02:57;;;;;;;10.43;6.78;;;;;;;14.89;100.00;101503.16;5074181;28;20031;-73
2022/08/07 07:05:22;;;;;;;7.70;5.22;;;;;;;15.07;100.00;101518.13;5072549;28;20024;-73
2022/08/07 07:07:48;;;;;;;9.18;5.80;;;;;;;15.02;100.00;101505.13;5061023;28;20036;-73
2022/08/07 07:10:13;;;;;;;8.48;5.95;;;;;;;15.06;100.00;101509.31;5062365;28;20119;-74
2022/08/07 07:12:47;;;;;;;8.10;6.50;;;;;;;15.09;100.00;101509.16;5057024;28;20048;-74
2022/08/07 07:15:17;;;;;;;9.43;6.70;;;;;;;15.17;100.00;101514.94;5066916;28;20032;-74
2022/08/07 07:17:51;;;;;;;10.23;6.65;;;;;;;15.29;100.00;101521.38;5074256;28;20035;-74
2022/08/07 07:20:20;;;;;;;;;;;;;;;15.40;100.00;101531.41;5092583;28;20107;-74
2022/08/07 07:22:47;;;;;;;6.43;5.45;;;;;;;15.51;100.00;101529.09;5072046;28;19934;-75
2022/08/07 07:25:13;;;;;;;10.70;6.32;;;;;;;15.32;100.00;101486.78;5065579;28;20036;-75
2022/08/07 07:27:45;;;;;;;6.95;6.18;;;;;;;15.66;100.00;101522.97;5062940;28;20104;-75
2022/08/07 07:30:11;;;;;;;8.65;6.25;;;;;;;15.84;100.00;101522.00;5063314;28;20036;-75
2022/08/07 07:32:39;;;;;;;12.20;6.40;;;;;;;15.96;100.00;101523.13;5078746;28;20030;-74
2022/08/07 07:35:06;;;;;;;9.52;6.28;;;;;;;16.00;100.00;101512.28;5057202;28;20069;-74
2022/08/07 07:37:33;;;;;;;12.95;5.85;;;;;;;16.03;100.00;101512.09;5058055;28;20107;-75
2022/08/07 07:40:03;;;;;;;8.35;5.70;;;;;;;16.20;100.00;101530.59;5058977;28;20164;-74
2022/08/07 07:42:29;;;;;;;6.00;4.65;;;;;;;16.26;100.00;101514.34;5065514;28;20043;-74
2022/08/07 07:44:56;;;;;;;6.78;5.70;;;;;;;16.27;100.00;101508.09;5077774;28;20023;-75
2022/08/07 07:47:23;;;;;;;7.68;5.82;;;;;;;16.39;100.00;101509.22;5069221;28;20032;-74
2022/08/07 07:49:50;;;;;;;6.40;5.28;;;;;;;16.59;100.00;101524.91;5057384;28;20599;-74
2022/08/07 07:52:16;;;;;;;7.75;5.78;;;;;;;16.55;100.00;101506.53;5059770;28;20088;-74
2022/08/07 07:54:42;;;;;;;7.22;5.35;;;;;;;16.72;100.00;101520.59;5062026;28;20035;-74
2022/08/07 07:57:09;;;;;;;9.02;5.63;;;;;;;16.80;100.00;101515.69;5060503;28;20398;-74
2022/08/07 07:59:37;;;;;;;7.25;5.93;;;;;;;16.86;100.00;101506.53;5104307;28;20023;-74
2022/08/07 08:02:03;;;;;;;9.63;5.80;;;;;;;16.64;100.00;101450.31;5065409;28;20032;-73
2022/08/07 08:04:30;;;;;;;7.20;5.00;;;;;;;17.11;100.00;101508.56;5048829;28;20038;-74
2022/08/07 08:06:56;;;;;;;4.63;3.83;;;;;;;17.12;100.00;101489.91;5059053;28;20024;-74
2022/08/07 08:09:25;;;;;;;6.05;3.80;;;;;;;17.28;100.00;101511.94;5079751;28;20055;-73
2022/08/07 08:11:51;;;;;;;9.27;4.93;;;;;;;17.24;100.00;101493.59;5085964;28;20466;-73
2022/08/07 08:14:16;;;;;;;5.45;4.32;;;;;;;17.34;100.00;101500.91;5068981;28;20107;-73
2022/08/07 08:16:43;;;;;;;6.60;5.30;;;;;;;17.41;100.00;101495.22;5074862;28;20091;-75
2022/08/07 08:19:12;;;;;;;7.97;4.32;;;;;;;17.43;100.00;101483.59;5047504;28;20178;-74
2022/08/07 08:27:16;;;;;;;3.85;2.50;;;;;;;17.89;100.00;101510.84;5082704;28;20047;-74
2022/08/07 08:29:41;;;;;;;6.32;3.08;;;;;;;18.06;100.00;101504.47;5060624;28;20032;-75
2022/08/07 08:32:09;;;;;;;4.05;2.55;;;;;;;18.02;100.00;101465.69;5104480;28;20024;-75
2022/08/07 08:34:38;;;;;;;4.47;2.28;;;;;;;18.26;100.00;101490.75;5077944;28;20111;-73
2022/08/07 08:37:04;;;;;;;3.70;1.83;;;;;;;18.32;100.00;101499.19;5091528;28;20056;-73
2022/08/07 08:39:29;;;;;;;2.38;1.30;;;;;;;18.38;100.00;101485.47;5082338;28;20062;-73
2022/08/07 08:42:08;;;;;;;3.40;1.48;;;;;;;18.29;100.00;101470.09;5056737;28;20059;-73
2022/08/07 08:44:40;;;;;;;3.83;1.70;;;;;;;18.47;100.00;101486.69;5073530;28;20044;-74
2022/08/07 08:47:16;;;;;;;4.28;2.10;;;;;;;18.48;100.00;101475.09;5077513;28;20107;-75
2022/08/07 08:50:03;;;;;;;4.88;2.00;;;;;;;18.69;100.00;101487.00;5056505;28;20101;-74
2022/08/07 08:52:37;;;;;;;2.90;1.67;;;;;;;18.70;100.00;101472.75;5057647;28;20040;-73
2022/08/07 08:55:14;;;;;;;2.33;1.10;;;;;;;18.77;99.58;101455.41;5056931;28;20029;-72
2022/08/07 08:57:39;;;;;;;2.33;1.05;;;;;;;19.03;98.83;101490.09;5057405;28;20117;-73
2022/08/07 09:00:07;;;;;;;1.95;0.82;;;;;;;19.03;99.89;101484.75;5074740;28;20104;-73
2022/08/07 09:03:01;;;;;;;2.42;1.25;;;;;;;19.13;98.74;101486.66;5057516;28;21297;-73
2022/08/07 09:05:36;;;;;;;3.15;1.27;;;;;;;19.16;97.79;101473.13;5041294;28;20419;-73
2022/08/07 09:08:17;;;;;;;4.90;1.52;;;;;;;19.15;97.64;101471.44;5073864;28;20024;-74
2022/08/07 09:10:51;;;;;;;2.22;1.08;;;;;;;19.16;91.92;101472.31;5058815;28;20367;-73
2022/08/07 09:13:58;;;;;;;1.77;0.82;;;;;;;19.21;89.40;101465.69;5078461;28;20063;-73
2022/08/07 09:16:45;;;;;;;2.45;0.70;;;;;;;19.37;89.84;101476.97;5057246;28;20044;-74
2022/08/07 09:19:38;;;;;;;5.70;0.98;;;;;;;19.15;88.08;101428.81;5075609;28;20028;-73
2022/08/07 09:22:37;;;;;;;2.50;1.30;;;;;;;19.58;89.94;101480.00;5078489;28;20028;-73
2022/08/07 09:25:08;;;;;;;2.67;1.38;;;;;;;19.65;89.87;101469.75;5082288;28;20028;-74
2022/08/07 09:27:45;;;;;;;5.38;1.10;;;;;;;19.69;89.38;101471.25;5079863;28;20112;-74
2022/08/07 09:30:12;;;;;;;5.40;1.00;;;;;;;19.61;84.97;101449.59;5071164;28;20020;-74
2022/08/07 09:32:56;;;;;;;2.80;1.27;;;;;;;19.67;84.35;101442.00;5055927;28;20032;-78
2022/08/07 09:35:55;;;;;;;2.63;1.20;;;;;;;19.95;81.87;101462.22;5061835;28;20032;-75
2022/08/07 09:38:27;;;;;;;3.28;1.38;;;;;;;20.07;80.85;101465.84;5075650;28;20176;-75
2022/08/07 09:41:15;;;;;;;4.60;1.67;;;;;;;20.14;83.92;101462.59;5078364;28;20033;-76
2022/08/07 09:44:05;;;;;;;2.30;1.25;;;;;;;20.34;84.67;101475.38;5089352;28;20052;-73
2022/08/07 09:46:35;;;;;;;3.80;1.75;;;;;;;20.42;83.53;101461.44;5072402;28;20024;-73
2022/08/07 09:49:33;;;;;;;3.72;1.80;;;;;;;20.43;82.39;101462.31;5056314;28;20060;-73
2022/08/07 09:52:22;;;;;;;3.55;1.92;;;;;;;20.42;78.94;101466.78;5059290;28;20081;-74
2022/08/07 09:55:03;;;;;;;3.88;1.73;;;;;;;20.10;79.63;101401.56;5060461;28;20064;-74
2022/08/07 09:58:07;;;;;;;3.88;1.90;;;;;;;20.58;80.83;101458.50;5071276;28;20031;-75
2022/08/07 10:00:50;;;;;;;3.10;1.92;;;;;;;20.58;80.44;101439.81;5060925;28;20036;-74
2022/08/07 10:03:36;;;;;;;3.00;1.58;;;;;;;20.71;77.97;101449.44;5071480;28;20043;-75
2022/08/07 10:06:59;;;;;;;7.13;1.85;;;;;;;20.73;76.11;101443.97;5059079;28;20028;-74
2022/08/07 10:09:50;;;;;;;2.85;1.40;;;;;;;20.69;75.63;101426.47;4973062;28;20125;-75
2022/08/07 10:12:25;;;;;;;3.78;1.33;;;;;;;20.90;75.95;101436.38;4995975;28;20053;-76
2022/08/07 10:15:14;;;;;;;22.15;2.10;;;;;;;20.73;74.75;101407.44;5058195;28;20040;-76
2022/08/07 10:18:21;;;;;;;3.78;1.70;;;;;;;20.80;75.19;101429.19;5061306;28;20031;-76
2022/08/07 10:20:56;;;;;;;3.38;1.27;;;;;;;20.94;72.93;101437.00;5081521;28;20111;-77
2022/08/07 10:23:40;;;;;;;4.07;1.00;;;;;;;21.03;72.15;101436.28;5057431;28;20032;-74
2022/08/07 10:26:46;;;;;;;6.18;1.75;;;;;;;21.15;71.94;101440.72;5078852;28;20026;-77
2022/08/07 10:29:44;;;;;;;5.03;1.63;;;;;;;21.12;73.25;101430.28;5073329;28;20036;-75
2022/08/07 10:32:28;;;;;;;3.22;1.55;;;;;;;21.20;70.91;101418.97;5069274;28;20055;-75
2022/08/07 10:35:26;;;;;;;3.20;1.33;;;;;;;21.28;72.46;101420.09;5076865;28;20029;-74
2022/08/07 10:38:20;;;;;;;4.65;1.20;;;;;;;21.43;72.42;101420.69;5058737;28;20040;-73
2022/08/07 10:41:01;;;;;;;3.05;1.50;;;;;;;21.31;71.44;101414.50;5075386;28;20542;-77
2022/08/07 10:43:32;;;;;;;3.08;1.20;;;;;;;21.21;73.44;101392.13;5070732;28;20029;-75
2022/08/07 10:46:00;;;;;;;3.72;1.50;;;;;;;21.39;70.25;101417.38;5059351;28;20036;-75
2022/08/07 10:48:40;;;;;;;2.63;1.30;;;;;;;21.48;71.18;101415.81;5055375;28;20142;-74
2022/08/07 10:51:16;;;;;;;2.97;1.05;;;;;;;21.48;71.44;101377.53;5074792;28;20082;-74
2022/08/07 10:54:12;;;;;;;5.18;1.60;;;;;;;21.74;69.76;101411.06;5048951;28;20904;-74
2022/08/07 10:57:03;;;;;;;2.67;1.30;;;;;;;21.92;71.06;101412.28;5068238;28;20776;-74
2022/08/07 10:59:34;;;;;;;6.45;1.45;;;;;;;22.00;70.74;101401.81;5077347;28;20027;-74
2022/08/07 11:02:18;;;;;;;4.82;1.33;;;;;;;22.08;70.19;101383.28;5076874;28;20113;-74
2022/08/07 11:05:12;;;;;;;2.60;0.93;;;;;;;22.27;67.54;101388.78;5056939;28;20036;-74
2022/08/07 11:07:59;;;;;;;3.22;1.17;;;;;;;22.37;65.82;101395.09;5044986;28;20032;-75
2022/08/07 11:10:42;;;;;;;2.53;1.10;;;;;;;22.22;67.13;101364.25;5070969;28;20104;-75
2022/08/07 11:13:35;;;;;;;4.93;1.83;;;;;;;22.30;63.91;101385.91;5072787;28;20032;-76
2022/08/07 11:16:32;;;;;;;2.65;1.20;;;;;;;22.00;67.45;101331.34;5058767;28;20052;-74
2022/08/07 11:19:28;;;;;;;5.88;1.42;;;;;;;22.61;67.75;101381.47;5077371;28;20032;-76
2022/08/07 11:22:05;;;;;;;2.47;1.08;;;;;;;22.95;68.30;101374.09;5024721;28;20491;-74
2022/08/07 11:24:59;;;;;;;3.40;1.38;;;;;;;23.07;65.70;101362.31;5074734;28;20060;-75
2022/08/07 11:27:43;;;;;;;3.95;1.45;;;;;;;23.23;64.67;101373.41;5049420;28;20036;-77
2022/08/07 11:30:12;;;;;;;2.95;1.40;;;;;;;23.23;65.36;101354.63;5078796;28;20037;-75
2022/08/07 11:32:44;;;;;;;4.00;1.33;;;;;;;23.48;64.54;101350.66;5072843;28;20031;-76
2022/08/07 11:35:13;;;;;;;3.53;1.30;;;;;;;23.71;64.36;101362.88;5054140;28;20032;-75
2022/08/07 11:37:49;;;;;;;2.70;1.38;;;;;;;24.05;65.43;101360.66;5040375;28;20060;-74
2022/08/07 11:40:52;;;;;;;3.15;1.30;;;;;;;24.33;63.00;101364.41;5071187;28;20077;-78
2022/08/07 11:43:26;;;;;;;3.83;1.80;;;;;;;24.28;62.29;101340.63;5078309;28;20040;-78